createdAt,value
2023-05-05T00:01:21.108Z,13.02
2023-05-05T00:03:49.298Z,12.82
2023-05-05T00:06:17.381Z,10.10
2023-05-05T00:08:46.387Z,11.48
2023-05-05T00:11:15.941Z,10.80
2023-05-05T00:13:44.094Z,11.25
2023-05-05T00:16:12.166Z,11.88
2023-05-05T00:18:40.227Z,11.57
2023-05-05T00:21:08.325Z,12.48
2023-05-05T00:23:36.355Z,11.98
2023-05-05T00:26:04.405Z,9.27
2023-05-05T00:28:33.910Z,12.32
2023-05-05T00:31:02.330Z,11.00
2023-05-05T00:33:30.556Z,10.80
2023-05-05T00:36:01.203Z,13.45
2023-05-05T00:38:29.281Z,9.63
2023-05-05T00:40:57.279Z,11.77
2023-05-05T00:43:25.357Z,12.60
2023-05-05T00:46:01.123Z,11.88
2023-05-05T00:48:30.807Z,12.32
2023-05-05T00:51:01.181Z,12.37
2023-05-05T00:53:32.436Z,11.32
2023-05-05T00:56:00.509Z,12.10
2023-05-05T00:58:29.748Z,11.23
2023-05-05T01:00:59.153Z,12.18
2023-05-05T01:03:27.244Z,12.20
2023-05-05T01:06:06.060Z,11.75
2023-05-05T01:08:48.020Z,11.20
2023-05-05T01:11:26.461Z,13.35
2023-05-05T01:14:02.585Z,10.60
2023-05-05T01:16:35.672Z,11.00
2023-05-05T01:19:22.298Z,12.55
2023-05-05T01:21:56.418Z,12.40
2023-05-05T01:24:50.753Z,13.10
2023-05-05T01:27:37.336Z,11.45
2023-05-05T01:30:17.678Z,12.80
2023-05-05T01:32:51.940Z,12.98
2023-05-05T01:35:23.935Z,12.90
2023-05-05T01:37:59.538Z,11.38
2023-05-05T01:40:35.000Z,11.70
2023-05-05T01:43:04.918Z,13.15
2023-05-05T01:45:36.833Z,13.25
2023-05-05T01:48:08.013Z,15.80
2023-05-05T01:50:40.052Z,13.52
2023-05-05T01:53:09.657Z,14.60
2023-05-05T01:55:40.369Z,18.38
2023-05-05T01:58:10.341Z,15.70
2023-05-05T02:00:39.801Z,15.98
2023-05-05T02:03:11.232Z,16.10
2023-05-05T02:05:40.832Z,15.82
2023-05-05T02:08:10.925Z,16.50
2023-05-05T02:10:40.986Z,16.85
2023-05-05T02:13:12.509Z,18.23
2023-05-05T02:15:41.724Z,16.50
2023-05-05T02:18:12.757Z,18.23
2023-05-05T02:20:42.339Z,19.15
2023-05-05T02:23:10.461Z,19.08
2023-05-05T02:25:41.992Z,18.13
2023-05-05T02:28:15.056Z,17.45
2023-05-05T02:30:44.773Z,18.08
2023-05-05T02:33:20.949Z,19.98
2023-05-05T02:35:51.956Z,16.95
2023-05-05T02:38:24.862Z,21.10
2023-05-05T02:40:56.062Z,17.20
2023-05-05T02:43:26.721Z,18.63
2023-05-05T02:45:54.799Z,18.85
2023-05-05T02:48:24.507Z,15.50
2023-05-05T02:50:52.517Z,16.33
2023-05-05T02:53:25.943Z,16.75
2023-05-05T02:55:58.357Z,16.92
2023-05-05T02:58:32.619Z,17.92
2023-05-05T03:01:12.677Z,16.08
2023-05-05T03:03:53.140Z,17.55
2023-05-05T03:06:22.752Z,19.48
2023-05-05T03:08:57.310Z,16.98
2023-05-05T03:11:33.156Z,16.67
2023-05-05T03:14:08.844Z,21.33
2023-05-05T03:16:42.158Z,21.27
2023-05-05T03:19:13.756Z,21.40
2023-05-05T03:21:41.871Z,18.42
2023-05-05T03:24:15.393Z,18.55
2023-05-05T03:26:43.778Z,19.02
2023-05-05T03:29:12.150Z,20.45
2023-05-05T03:31:43.595Z,22.35
2023-05-05T03:34:15.299Z,23.08
2023-05-05T03:36:43.511Z,21.38
2023-05-05T03:39:11.877Z,22.35
2023-05-05T03:41:40.066Z,20.75
2023-05-05T03:44:08.111Z,21.90
2023-05-05T03:46:36.149Z,23.27
2023-05-05T03:49:04.188Z,22.83
2023-05-05T03:51:33.807Z,22.45
2023-05-05T03:54:01.904Z,23.48
2023-05-05T03:56:30.099Z,24.17
2023-05-05T03:59:00.859Z,22.58
2023-05-05T04:01:30.035Z,24.38
2023-05-05T04:03:58.436Z,22.77
2023-05-05T04:06:26.689Z,26.25
2023-05-05T04:08:59.109Z,25.40
2023-05-05T04:11:27.463Z,22.13
2023-05-05T04:13:58.359Z,27.35
2023-05-05T04:16:28.768Z,25.95
2023-05-05T04:18:56.995Z,23.13
2023-05-05T04:21:25.016Z,28.23
2023-05-05T04:23:53.210Z,27.70
2023-05-05T04:26:24.679Z,24.02
2023-05-05T04:28:52.802Z,23.38
2023-05-05T04:31:20.866Z,24.90
2023-05-05T04:33:51.602Z,26.13
2023-05-05T04:36:20.125Z,24.30
2023-05-05T04:38:48.209Z,23.42
2023-05-05T04:41:19.135Z,25.15
2023-05-05T04:43:49.239Z,27.80
2023-05-05T04:46:17.299Z,25.65
2023-05-05T04:48:45.415Z,24.35
2023-05-05T04:51:13.890Z,25.77
2023-05-05T04:53:41.926Z,24.27
2023-05-05T04:56:09.998Z,24.38
2023-05-05T04:58:38.018Z,24.00
2023-05-05T05:01:07.694Z,25.27
2023-05-05T05:03:36.592Z,25.17
2023-05-05T05:06:04.974Z,25.85
2023-05-05T05:08:33.043Z,25.27
2023-05-05T05:11:01.213Z,23.02
2023-05-05T05:13:29.254Z,24.08
2023-05-05T05:15:57.354Z,22.00
2023-05-05T05:18:26.964Z,20.60
2023-05-05T05:20:55.026Z,22.45
2023-05-05T05:23:23.056Z,21.92
2023-05-05T05:25:51.147Z,19.20
2023-05-05T05:28:19.195Z,18.98
2023-05-05T05:30:47.377Z,17.95
2023-05-05T05:33:15.659Z,16.63
2023-05-05T05:35:45.089Z,17.70
2023-05-05T05:38:13.264Z,16.48
2023-05-05T05:40:41.418Z,16.60
2023-05-05T05:43:11.698Z,16.15
2023-05-05T05:45:39.745Z,14.88
2023-05-05T05:48:08.030Z,16.27
2023-05-05T05:50:38.653Z,14.75
2023-05-05T05:53:08.099Z,17.35
2023-05-05T05:55:36.133Z,14.45
2023-05-05T05:58:04.308Z,12.55
2023-05-05T06:00:34.922Z,15.35
2023-05-05T06:03:03.100Z,17.13
2023-05-05T06:05:31.443Z,13.88
2023-05-05T06:07:59.442Z,14.85
2023-05-05T06:10:31.781Z,12.82
2023-05-05T06:13:02.386Z,15.18
2023-05-05T06:15:30.572Z,15.48
2023-05-05T06:17:58.659Z,14.82
2023-05-05T06:20:26.878Z,14.52
2023-05-05T06:22:54.876Z,13.13
2023-05-05T06:25:22.913Z,13.98
2023-05-05T06:27:52.331Z,11.13
2023-05-05T06:30:20.534Z,13.30
2023-05-05T06:32:48.626Z,12.65
2023-05-05T06:35:16.948Z,15.75
2023-05-05T06:37:45.277Z,16.13
2023-05-05T06:40:14.070Z,12.40
2023-05-05T06:42:44.602Z,11.75
2023-05-05T06:45:14.330Z,14.63
2023-05-05T06:47:44.313Z,15.15
2023-05-05T06:50:12.826Z,13.43
2023-05-05T06:52:43.609Z,14.57
2023-05-05T06:55:11.912Z,13.10
2023-05-05T06:57:40.044Z,13.23
2023-05-05T07:00:11.453Z,14.10
2023-05-05T07:02:41.030Z,12.85
2023-05-05T07:05:09.405Z,14.00
2023-05-05T07:07:37.542Z,13.05
2023-05-05T07:10:06.424Z,12.00
2023-05-05T07:12:34.763Z,13.48
2023-05-05T07:15:12.128Z,13.77
2023-05-05T07:17:45.986Z,13.00
2023-05-05T07:20:14.259Z,11.52
2023-05-05T07:22:42.388Z,12.15
2023-05-05T07:25:10.916Z,14.27
2023-05-05T07:27:39.038Z,13.68
2023-05-05T07:30:11.949Z,13.10
2023-05-05T07:32:40.627Z,13.43
2023-05-05T07:35:10.925Z,12.98
2023-05-05T07:37:41.202Z,14.57
2023-05-05T07:40:10.677Z,16.35
2023-05-05T07:42:38.986Z,13.43
2023-05-05T07:45:08.429Z,13.90
2023-05-05T07:47:40.566Z,12.10
2023-05-05T07:50:10.906Z,14.15
2023-05-05T07:55:10.274Z,12.60
2023-05-05T07:57:38.675Z,12.15
2023-05-05T08:00:09.434Z,12.40
2023-05-05T08:02:37.913Z,13.07
2023-05-05T08:05:07.226Z,13.23
2023-05-05T08:07:41.200Z,13.13
2023-05-05T08:10:11.415Z,14.35
2023-05-05T08:12:39.749Z,11.50
2023-05-05T08:15:08.936Z,12.75
2023-05-05T08:17:48.740Z,11.73
2023-05-05T08:20:17.318Z,11.98
2023-05-05T08:22:47.475Z,10.43
2023-05-05T08:25:15.807Z,10.40
2023-05-05T08:27:46.828Z,10.77
2023-05-05T08:30:21.647Z,11.55
2023-05-05T08:32:49.785Z,10.63
2023-05-05T08:35:17.834Z,9.55
2023-05-05T08:37:47.287Z,10.05
2023-05-05T08:40:15.786Z,12.30
2023-05-05T08:42:45.548Z,10.48
2023-05-05T08:45:13.672Z,11.90
2023-05-05T08:47:43.292Z,11.38
2023-05-05T08:50:12.642Z,10.38
2023-05-05T08:52:44.172Z,18.10
2023-05-05T08:55:25.745Z,11.10
2023-05-05T08:57:57.215Z,15.75
2023-05-05T09:00:26.587Z,11.00
2023-05-05T09:02:57.165Z,8.48
2023-05-05T09:05:25.917Z,8.73
2023-05-05T09:07:54.065Z,10.65
2023-05-05T09:10:23.474Z,9.82
2023-05-05T09:12:54.648Z,10.75
2023-05-05T09:15:22.733Z,6.57
2023-05-05T09:17:53.633Z,7.90
2023-05-05T09:20:21.746Z,5.03
2023-05-05T09:22:49.803Z,5.68
2023-05-05T09:25:20.628Z,7.10
2023-05-05T09:27:51.019Z,6.55
2023-05-05T09:30:25.355Z,6.00
2023-05-05T09:32:54.637Z,7.90
2023-05-05T09:35:23.690Z,7.10
2023-05-05T09:37:51.800Z,8.15
2023-05-05T09:40:22.677Z,7.22
2023-05-05T09:43:02.795Z,7.95
2023-05-05T09:45:30.969Z,9.60
2023-05-05T09:48:01.342Z,13.05
2023-05-05T09:50:32.688Z,7.55
2023-05-05T09:53:02.993Z,7.95
2023-05-05T09:55:32.116Z,8.23
2023-05-05T09:58:19.525Z,8.23
2023-05-05T10:00:48.062Z,8.82
2023-05-05T10:03:16.379Z,8.68
2023-05-05T10:05:55.727Z,7.40
2023-05-05T10:08:25.407Z,6.53
2023-05-05T10:10:55.603Z,11.60
2023-05-05T10:13:25.704Z,7.95
2023-05-05T10:15:55.609Z,9.27
2023-05-05T10:18:25.134Z,6.95
2023-05-05T10:20:58.604Z,7.05
2023-05-05T10:23:35.988Z,7.53
2023-05-05T10:26:07.374Z,6.70
2023-05-05T10:28:45.331Z,5.57
2023-05-05T10:31:26.038Z,7.28
2023-05-05T10:33:58.187Z,8.93
2023-05-05T10:36:28.043Z,9.32
2023-05-05T10:38:58.810Z,7.07
2023-05-05T10:41:27.714Z,15.05
2023-05-05T10:43:58.340Z,9.50
2023-05-05T10:46:27.904Z,8.88
2023-05-05T10:49:01.000Z,10.30
2023-05-05T10:51:40.523Z,8.50
2023-05-05T10:54:24.406Z,7.60
2023-05-05T10:56:53.170Z,6.38
2023-05-05T10:59:44.017Z,6.70
2023-05-05T11:02:26.753Z,5.13
2023-05-05T11:05:12.372Z,6.53
2023-05-05T11:07:40.691Z,8.38
2023-05-05T11:10:11.005Z,7.53
2023-05-05T11:13:19.048Z,6.32
2023-05-05T11:15:49.303Z,6.57
2023-05-05T11:18:44.494Z,6.18
2023-05-05T11:21:17.182Z,6.57
2023-05-05T11:23:46.865Z,10.40
2023-05-05T11:26:15.817Z,8.20
2023-05-05T11:29:02.056Z,6.55
2023-05-05T11:31:32.440Z,7.63
2023-05-05T11:34:33.955Z,5.80
2023-05-05T11:37:03.884Z,6.75
2023-05-05T11:39:47.590Z,8.95
2023-05-05T11:42:26.687Z,5.57
2023-05-05T11:44:55.306Z,4.72
2023-05-05T11:47:32.286Z,5.20
2023-05-05T11:50:16.974Z,4.50
2023-05-05T11:52:45.184Z,7.60
2023-05-05T11:55:13.447Z,1.75
2023-05-05T11:57:41.493Z,0.90
2023-05-05T12:00:10.398Z,2.17
2023-05-05T12:02:40.523Z,5.50
2023-05-05T12:05:09.200Z,2.38
2023-05-05T12:07:37.261Z,1.60
2023-05-05T12:10:06.211Z,2.83
2023-05-05T12:12:40.213Z,3.83
2023-05-05T12:15:09.743Z,1.55
2023-05-05T12:17:44.912Z,2.15
2023-05-05T12:20:14.248Z,2.70
2023-05-05T12:22:42.759Z,2.92
2023-05-05T12:25:11.831Z,4.95
2023-05-05T12:27:40.002Z,2.33
2023-05-05T12:30:16.827Z,5.10
2023-05-05T12:32:46.961Z,4.70
2023-05-05T12:35:16.143Z,3.97
2023-05-05T12:37:44.844Z,4.28
2023-05-05T12:40:44.715Z,4.72
2023-05-05T12:43:25.585Z,3.33
2023-05-05T12:46:08.596Z,2.97
2023-05-05T12:51:18.406Z,3.20
2023-05-05T12:53:47.446Z,2.65
2023-05-05T12:56:35.432Z,2.45
2023-05-05T12:59:08.119Z,3.13
2023-05-05T13:01:37.714Z,3.05
2023-05-05T13:04:12.048Z,2.63
2023-05-05T13:06:41.305Z,4.15
2023-05-05T13:09:11.129Z,3.83
2023-05-05T13:11:39.853Z,1.73
2023-05-05T13:14:08.801Z,3.13
2023-05-05T13:16:36.974Z,2.55
2023-05-05T13:19:05.143Z,3.33
2023-05-05T13:21:34.594Z,4.88
2023-05-05T13:24:19.782Z,5.80
2023-05-05T13:26:50.993Z,2.15
2023-05-05T13:29:19.459Z,2.83
2023-05-05T13:31:47.600Z,3.58
2023-05-05T13:34:15.661Z,2.72
2023-05-05T13:36:45.104Z,5.20
2023-05-05T13:39:13.557Z,4.03
2023-05-05T13:41:41.689Z,2.83
2023-05-05T13:44:13.642Z,4.22
2023-05-05T13:46:42.252Z,4.28
2023-05-05T13:49:10.440Z,2.70
2023-05-05T13:51:39.206Z,4.30
2023-05-05T13:54:09.702Z,4.80
2023-05-05T13:56:37.913Z,5.25
2023-05-05T13:59:05.928Z,2.28
2023-05-05T14:01:34.024Z,2.88
2023-05-05T14:04:04.475Z,6.45
2023-05-05T14:06:36.225Z,4.53
2023-05-05T14:09:06.280Z,6.82
2023-05-05T14:11:36.040Z,4.22
2023-05-05T14:14:04.070Z,4.00
2023-05-05T14:16:32.171Z,3.80
2023-05-05T14:19:00.242Z,3.15
2023-05-05T14:21:28.316Z,4.47
2023-05-05T14:23:58.549Z,3.20
2023-05-05T14:26:27.348Z,5.40
2023-05-05T14:28:56.802Z,4.18
2023-05-05T14:31:24.987Z,3.65
2023-05-05T14:33:53.469Z,4.13
2023-05-05T14:36:21.526Z,4.55
2023-05-05T14:38:49.562Z,5.10
2023-05-05T14:41:17.706Z,3.17
2023-05-05T14:43:47.965Z,4.15
2023-05-05T14:46:20.260Z,2.15
2023-05-05T14:48:48.427Z,4.25
2023-05-05T14:51:16.914Z,2.67
2023-05-05T14:53:44.968Z,1.67
2023-05-05T14:56:13.124Z,5.60
2023-05-05T14:58:41.173Z,2.65
2023-05-05T15:01:09.216Z,3.00
2023-05-05T15:03:38.742Z,3.13
2023-05-05T15:06:09.941Z,3.63
2023-05-05T15:08:39.046Z,4.22
2023-05-05T15:11:09.574Z,4.50
2023-05-05T15:13:40.122Z,3.67
2023-05-05T15:16:08.982Z,3.10
2023-05-05T15:18:38.540Z,2.47
2023-05-05T15:21:07.057Z,4.00
2023-05-05T15:23:35.451Z,5.60
2023-05-05T15:26:03.901Z,4.32
2023-05-05T15:28:32.008Z,5.50
2023-05-05T15:31:02.154Z,2.88
2023-05-05T15:33:31.505Z,3.33
2023-05-05T15:36:01.107Z,4.18
2023-05-05T15:38:30.440Z,4.55
2023-05-05T15:40:58.477Z,4.38
2023-05-05T15:43:29.541Z,3.70
2023-05-05T15:45:57.521Z,2.70
2023-05-05T15:48:25.588Z,2.95
2023-05-05T15:50:53.630Z,3.90
2023-05-05T15:53:23.075Z,3.55
2023-05-05T15:55:51.190Z,4.25
2023-05-05T15:58:19.275Z,2.92
2023-05-05T16:00:49.796Z,5.32
2023-05-05T16:03:17.902Z,3.88
2023-05-05T16:05:47.218Z,3.55
2023-05-05T16:08:15.292Z,2.90
2023-05-05T16:10:44.708Z,4.57
2023-05-05T16:13:12.937Z,3.28
2023-05-05T16:15:40.951Z,3.10
2023-05-05T16:18:11.265Z,3.75
2023-05-05T16:20:39.349Z,3.38
2023-05-05T16:23:08.055Z,2.97
2023-05-05T16:25:36.043Z,2.28
2023-05-05T16:28:08.460Z,5.07
2023-05-05T16:30:38.065Z,4.65
2023-05-05T16:33:06.828Z,3.25
2023-05-05T16:35:35.067Z,3.22
2023-05-05T16:38:03.223Z,3.60
2023-05-05T16:40:31.259Z,3.70
2023-05-05T16:42:59.270Z,5.72
2023-05-05T16:45:28.680Z,5.10
2023-05-05T16:47:56.868Z,3.35
2023-05-05T16:50:25.206Z,4.72
2023-05-05T16:52:53.230Z,3.38
2023-05-05T16:55:21.622Z,5.68
2023-05-05T16:57:49.678Z,3.90
2023-05-05T17:00:17.921Z,4.60
2023-05-05T17:02:47.404Z,5.40
2023-05-05T17:05:17.398Z,2.85
2023-05-05T17:07:45.652Z,4.55
2023-05-05T17:10:16.492Z,3.83
2023-05-05T17:12:44.519Z,4.25
2023-05-05T17:15:12.575Z,2.28
2023-05-05T17:17:42.360Z,4.93
2023-05-05T17:20:13.248Z,4.28
2023-05-05T17:22:41.304Z,4.47
2023-05-05T17:25:10.550Z,3.78
2023-05-05T17:27:41.806Z,4.95
2023-05-05T17:30:10.938Z,3.58
2023-05-05T17:32:39.019Z,2.85
2023-05-05T17:35:08.193Z,3.72
2023-05-05T17:37:37.787Z,2.60
2023-05-05T17:40:07.356Z,2.85
2023-05-05T17:42:35.381Z,5.63
2023-05-05T17:45:06.699Z,4.88
2023-05-05T17:47:34.870Z,4.55
2023-05-05T17:50:03.253Z,2.88
2023-05-05T17:52:31.336Z,5.15
2023-05-05T17:55:00.935Z,3.17
2023-05-05T17:57:29.085Z,3.85
2023-05-05T17:59:57.194Z,2.90
2023-05-05T18:02:25.389Z,4.65
2023-05-05T18:04:53.486Z,3.95
2023-05-05T18:07:21.472Z,6.00
2023-05-05T18:09:49.515Z,5.00
2023-05-05T18:12:19.097Z,4.05
2023-05-05T18:14:47.168Z,3.38
2023-05-05T18:17:15.230Z,6.15
2023-05-05T18:19:49.103Z,5.45
2023-05-05T18:22:17.744Z,5.00
2023-05-05T18:24:46.716Z,4.30
2023-05-05T18:27:14.793Z,3.85
2023-05-05T18:29:44.240Z,5.00
2023-05-05T18:32:12.286Z,9.20
2023-05-05T18:34:40.276Z,6.82
2023-05-05T18:37:08.273Z,6.78
2023-05-05T18:39:36.356Z,5.20
2023-05-05T18:42:04.630Z,5.82
2023-05-05T18:44:34.831Z,5.65
2023-05-05T18:47:04.303Z,7.80
2023-05-05T18:49:32.408Z,6.68
2023-05-05T18:52:00.497Z,6.40
2023-05-05T18:54:28.933Z,7.90
2023-05-05T18:56:57.371Z,7.47
2023-05-05T18:59:25.408Z,7.35
2023-05-05T19:01:56.314Z,7.35
2023-05-05T19:04:31.385Z,9.23
2023-05-05T19:07:00.060Z,6.95
2023-05-05T19:09:28.261Z,7.20
2023-05-05T19:11:56.295Z,7.18
2023-05-05T19:14:24.516Z,8.43
2023-05-05T19:16:55.748Z,8.57
2023-05-05T19:19:25.572Z,6.90
2023-05-05T19:21:55.981Z,8.73
2023-05-05T19:24:24.017Z,7.68
2023-05-05T19:26:52.094Z,7.65
2023-05-05T19:29:20.121Z,9.90
2023-05-05T19:31:51.183Z,7.10
2023-05-05T19:34:19.179Z,7.32
2023-05-05T19:36:48.642Z,7.45
2023-05-05T19:39:16.713Z,8.02
2023-05-05T19:41:44.843Z,7.13
2023-05-05T19:44:12.990Z,8.15
2023-05-05T19:46:41.232Z,9.65
2023-05-05T19:49:09.333Z,8.68
2023-05-05T19:51:37.384Z,9.35
2023-05-05T19:54:07.021Z,8.18
2023-05-05T19:56:35.032Z,8.23
2023-05-05T19:59:06.280Z,7.90
2023-05-05T20:01:34.984Z,8.25
2023-05-05T20:04:05.191Z,8.45
2023-05-05T20:06:33.736Z,10.95
2023-05-05T20:09:02.071Z,11.45
2023-05-05T20:11:32.064Z,10.23
2023-05-05T20:14:00.184Z,8.23
2023-05-05T20:16:28.358Z,10.88
2023-05-05T20:18:56.691Z,10.57
2023-05-05T20:21:24.804Z,9.18
2023-05-05T20:23:54.537Z,9.23
2023-05-05T20:26:25.804Z,9.60
2023-05-05T20:28:55.611Z,9.43
2023-05-05T20:31:23.781Z,8.48
2023-05-05T20:33:51.869Z,10.48
2023-05-05T20:36:20.043Z,13.55
2023-05-05T20:38:48.080Z,12.18
2023-05-05T20:41:16.224Z,13.85
2023-05-05T20:43:44.347Z,11.63
2023-05-05T20:46:13.749Z,12.55
2023-05-05T20:48:43.045Z,10.70
2023-05-05T20:51:11.338Z,10.68
2023-05-05T20:53:39.815Z,11.13
2023-05-05T20:56:08.970Z,10.55
2023-05-05T20:58:37.323Z,10.02
2023-05-05T21:01:05.370Z,13.20
2023-05-05T21:03:34.881Z,10.43
2023-05-05T21:06:05.119Z,10.50
2023-05-05T21:08:33.182Z,12.35
2023-05-05T21:11:01.627Z,12.93
2023-05-05T21:13:30.525Z,12.32
2023-05-05T21:15:58.557Z,10.07
2023-05-05T21:18:27.679Z,10.93
2023-05-05T21:20:57.345Z,11.38
2023-05-05T21:23:26.124Z,10.18
2023-05-05T21:25:54.186Z,13.60
2023-05-05T21:28:22.195Z,9.88
2023-05-05T21:31:10.408Z,10.95
2023-05-05T21:33:39.645Z,11.63
2023-05-05T21:36:09.368Z,10.40
2023-05-05T21:38:37.412Z,12.25
2023-05-05T21:41:05.476Z,12.40
2023-05-05T21:43:33.546Z,11.30
2023-05-05T21:46:02.491Z,10.93
2023-05-05T21:48:31.144Z,11.25
2023-05-05T21:50:59.328Z,11.38
2023-05-05T21:53:28.703Z,9.68
2023-05-05T21:55:56.970Z,11.80
2023-05-05T21:58:25.616Z,10.05
2023-05-05T22:00:53.633Z,10.80
2023-05-05T22:03:24.251Z,11.45
2023-05-05T22:05:55.000Z,11.15
2023-05-05T22:08:23.105Z,10.00
2023-05-05T22:10:52.459Z,11.57
2023-05-05T22:13:20.612Z,9.73
2023-05-05T22:15:48.915Z,12.40
2023-05-05T22:18:17.273Z,9.82
2023-05-05T22:20:46.670Z,12.27
2023-05-05T22:23:16.222Z,11.80
2023-05-05T22:25:45.453Z,11.55
2023-05-05T22:28:17.866Z,11.85
2023-05-05T22:30:45.884Z,12.75
2023-05-05T22:33:14.209Z,10.48
2023-05-05T22:35:42.261Z,11.15
2023-05-05T22:38:10.319Z,12.23
2023-05-05T22:40:38.334Z,13.88
2023-05-05T22:43:06.479Z,12.13
2023-05-05T22:45:36.154Z,11.07
2023-05-05T22:48:04.585Z,11.40
2023-05-05T22:50:32.695Z,13.57
2023-05-05T22:53:00.692Z,12.27
2023-05-05T22:55:28.782Z,12.48
2023-05-05T22:57:56.915Z,12.23
2023-05-05T23:00:25.337Z,11.15
2023-05-05T23:02:55.220Z,11.98
2023-05-05T23:05:23.414Z,13.65
2023-05-05T23:07:51.564Z,11.73
2023-05-05T23:10:19.740Z,12.38
2023-05-05T23:12:47.769Z,11.27
2023-05-05T23:15:15.830Z,11.65
2023-05-05T23:17:43.906Z,12.98
2023-05-05T23:20:14.015Z,11.85
2023-05-05T23:22:43.252Z,10.63
2023-05-05T23:25:11.693Z,11.48
2023-05-05T23:27:41.091Z,11.90
2023-05-05T23:30:10.581Z,12.00
2023-05-05T23:32:38.703Z,12.07
2023-05-05T23:35:07.859Z,10.43
2023-05-05T23:37:37.546Z,11.00
2023-05-05T23:40:06.900Z,11.25
2023-05-05T23:42:34.921Z,11.63
2023-05-05T23:45:03.069Z,12.02
2023-05-05T23:47:31.151Z,10.30
2023-05-05T23:49:59.203Z,11.90
2023-05-05T23:52:27.169Z,11.07
2023-05-05T23:54:56.638Z,12.40
2023-05-05T23:57:24.783Z,11.27
2023-05-05T23:59:52.711Z,11.45
